Time;durP1;ratioP1;P1;durP2;ratioP2;P2;SDS_P1;SDS_P2;PMS_P1;PMS_P2;Temp;Humidity;BMP_temperature;BMP_pressure;BME280_temperature;BME280_humidity;BME280_pressure;Samples;Min_cycle;Max_cycle;Signal;HPM_P1;HPM_P2
2022/03/16 00:01:06;;;;;;;42.87;27.77;;;;;;;;;;5022962;28;20205;-67
2022/03/16 00:03:31;;;;;;;44.70;27.97;;;;;;;;;;5026928;28;20189;-64
2022/03/16 00:05:56;;;;;;;43.20;26.97;;;;;;;;;;5044442;28;20186;-68
2022/03/16 00:08:21;;;;;;;42.33;26.97;;;;;;;;;;5019613;28;20698;-63
2022/03/16 00:10:46;;;;;;;38.13;25.73;;;;;;;;;;5024911;28;20217;-64
2022/03/16 00:13:12;;;;;;;44.87;27.07;;;;;;;;;;5024702;28;20186;-66
2022/03/16 00:15:37;;;;;;;40.13;25.27;;;;;;;;;;5029935;28;20228;-65
2022/03/16 00:18:02;;;;;;;34.53;24.77;;;;;;;;;;5040264;28;20281;-64
2022/03/16 00:20:27;;;;;;;44.43;26.87;;;;;;;;;;5049574;28;20178;-65
2022/03/16 00:22:52;;;;;;;37.93;25.50;;;;;;;;;;5050059;28;20187;-65
2022/03/16 00:25:18;;;;;;;37.57;25.63;;;;;;;;;;5043139;28;20189;-66
2022/03/16 00:27:43;;;;;;;35.63;24.27;;;;;;;;;;5044225;28;20350;-67
2022/03/16 00:30:08;;;;;;;42.60;26.13;;;;;;;;;;5050576;28;20204;-68
2022/03/16 00:32:34;;;;;;;42.57;27.20;;;;;;;;;;5047919;28;20546;-65
2022/03/16 00:34:59;;;;;;;37.97;26.57;;;;;;;;;;5054950;28;20228;-65
2022/03/16 00:37:24;;;;;;;39.50;27.23;;;;;;;;;;5050887;28;20382;-67
2022/03/16 00:39:49;;;;;;;38.83;25.60;;;;;;;;;;5050158;28;20180;-67
2022/03/16 00:42:14;;;;;;;43.07;26.87;;;;;;;;;;5048842;28;20714;-66
2022/03/16 00:44:40;;;;;;;36.97;26.43;;;;;;;;;;5049090;28;20273;-65
2022/03/16 00:47:05;;;;;;;43.77;26.67;;;;;;;;;;5049757;28;20416;-66
2022/03/16 00:49:30;;;;;;;42.33;28.57;;;;;;;;;;5047939;28;20256;-65
2022/03/16 00:51:55;;;;;;;40.53;27.00;;;;;;;;;;5047832;28;20188;-66
2022/03/16 00:54:21;;;;;;;40.00;28.20;;;;;;;;;;5049764;28;20174;-66
2022/03/16 00:56:46;;;;;;;40.97;27.40;;;;;;;;;;5050506;28;20181;-66
2022/03/16 00:59:11;;;;;;;42.07;28.30;;;;;;;;;;5050465;28;20181;-65
2022/03/16 01:01:36;;;;;;;41.90;28.13;;;;;;;;;;5051127;28;20329;-66
2022/03/16 01:04:01;;;;;;;37.90;27.50;;;;;;;;;;5048963;28;20193;-65
2022/03/16 01:06:27;;;;;;;41.47;29.13;;;;;;;;;;5051688;28;20200;-66
2022/03/16 01:08:52;;;;;;;41.07;27.93;;;;;;;;;;5060244;28;20666;-65
2022/03/16 01:11:17;;;;;;;40.43;28.67;;;;;;;;;;5039392;28;20650;-66
2022/03/16 01:13:43;;;;;;;43.93;29.30;;;;;;;;;;5050242;28;20181;-65
2022/03/16 01:16:08;;;;;;;43.87;29.27;;;;;;;;;;5042291;28;20213;-64
2022/03/16 01:18:33;;;;;;;46.33;29.63;;;;;;;;;;5046888;28;20696;-66
2022/03/16 01:20:59;;;;;;;47.90;31.60;;;;;;;;;;5037669;28;20317;-65
2022/03/16 01:23:24;;;;;;;45.87;30.63;;;;;;;;;;5044611;28;20666;-66
2022/03/16 01:25:49;;;;;;;44.00;29.17;;;;;;;;;;5049296;28;20181;-66
2022/03/16 01:28:14;;;;;;;42.17;28.93;;;;;;;;;;5041833;28;20235;-66
2022/03/16 01:30:42;;;;;;;49.73;30.23;;;;;;;;;;5045241;28;20332;-66
2022/03/16 01:33:08;;;;;;;49.13;30.63;;;;;;;;;;5036505;28;20173;-64
2022/03/16 01:35:33;;;;;;;46.87;31.47;;;;;;;;;;5035790;28;20181;-66
2022/03/16 01:37:58;;;;;;;49.90;31.30;;;;;;;;;;5046218;28;20666;-66
2022/03/16 01:40:23;;;;;;;45.97;29.03;;;;;;;;;;5028441;28;20185;-66
2022/03/16 01:42:48;;;;;;;48.03;31.03;;;;;;;;;;5049586;28;20178;-65
2022/03/16 01:45:14;;;;;;;49.37;29.83;;;;;;;;;;5046841;28;20308;-63
2022/03/16 01:47:39;;;;;;;50.43;31.13;;;;;;;;;;5049600;28;20201;-66
2022/03/16 01:50:04;;;;;;;51.20;31.10;;;;;;;;;;5042579;28;20212;-65
2022/03/16 01:52:30;;;;;;;54.50;33.40;;;;;;;;;;5049284;28;20268;-66
2022/03/16 01:54:55;;;;;;;49.03;30.80;;;;;;;;;;5027490;28;20284;-65
2022/03/16 01:57:21;;;;;;;56.77;33.40;;;;;;;;;;5047122;28;20213;-68
2022/03/16 01:59:46;;;;;;;60.87;34.30;;;;;;;;;;5047669;28;20178;-65
2022/03/16 02:02:12;;;;;;;60.47;35.67;;;;;;;;;;5045879;28;20644;-65
2022/03/16 02:04:37;;;;;;;65.60;37.03;;;;;;;;;;5047676;28;20252;-66
2022/03/16 02:07:03;;;;;;;63.17;35.93;;;;;;;;;;5043365;28;20207;-66
2022/03/16 02:09:28;;;;;;;61.33;35.03;;;;;;;;;;5047786;28;20227;-66
2022/03/16 02:11:54;;;;;;;59.37;35.63;;;;;;;;;;5045917;28;20188;-66
2022/03/16 02:14:19;;;;;;;59.83;36.07;;;;;;;;;;5048494;28;20169;-66
2022/03/16 02:16:44;;;;;;;59.33;36.87;;;;;;;;;;5049672;28;20190;-66
2022/03/16 02:19:10;;;;;;;58.37;35.57;;;;;;;;;;5049057;28;20256;-68
2022/03/16 02:21:37;;;;;;;54.57;34.63;;;;;;;;;;5047592;28;20180;-65
2022/03/16 02:24:02;;;;;;;58.70;35.47;;;;;;;;;;5048717;28;20648;-66
2022/03/16 02:26:27;;;;;;;58.43;35.23;;;;;;;;;;5049440;28;20170;-64
2022/03/16 02:28:53;;;;;;;64.23;36.73;;;;;;;;;;5042261;22;20230;-68
2022/03/16 02:31:19;;;;;;;58.23;35.27;;;;;;;;;;5029684;28;20585;-68
2022/03/16 02:33:44;;;;;;;58.13;36.03;;;;;;;;;;5027899;28;20182;-68
2022/03/16 02:36:09;;;;;;;60.20;36.63;;;;;;;;;;5020392;28;20645;-67
2022/03/16 02:38:35;;;;;;;70.97;37.43;;;;;;;;;;5027888;28;20220;-68
2022/03/16 02:41:00;;;;;;;68.63;38.83;;;;;;;;;;5023513;28;20177;-68
2022/03/16 02:43:25;;;;;;;65.37;37.80;;;;;;;;;;5026399;28;20190;-68
2022/03/16 02:45:51;;;;;;;66.60;40.23;;;;;;;;;;5029019;28;20190;-68
2022/03/16 02:48:16;;;;;;;60.90;38.17;;;;;;;;;;5037034;28;20209;-68
2022/03/16 02:50:41;;;;;;;67.63;39.33;;;;;;;;;;5027606;28;20676;-67
2022/03/16 02:53:06;;;;;;;68.87;39.20;;;;;;;;;;5022179;28;20189;-67
2022/03/16 02:55:32;;;;;;;60.27;36.13;;;;;;;;;;5029109;28;20186;-68
2022/03/16 02:57:57;;;;;;;66.33;39.47;;;;;;;;;;5025447;28;20205;-68
2022/03/16 03:00:26;;;;;;;66.70;38.63;;;;;;;;;;5025514;28;20672;-67
2022/03/16 03:02:51;;;;;;;63.30;38.17;;;;;;;;;;5030052;28;20182;-68
2022/03/16 03:05:16;;;;;;;57.57;37.57;;;;;;;;;;5020019;28;20240;-69
2022/03/16 03:07:41;;;;;;;61.70;37.07;;;;;;;;;;5020635;28;20205;-69
2022/03/16 03:10:07;;;;;;;64.10;38.57;;;;;;;;;;5030021;28;20190;-68
2022/03/16 03:12:33;;;;;;;61.70;38.67;;;;;;;;;;5026451;28;20181;-68
2022/03/16 03:14:58;;;;;;;64.77;36.97;;;;;;;;;;5029826;28;20181;-69
2022/03/16 03:17:25;;;;;;;62.17;36.33;;;;;;;;;;5021599;28;20196;-69
2022/03/16 03:19:51;;;;;;;53.20;34.67;;;;;;;;;;5021056;28;20205;-68
2022/03/16 03:22:16;;;;;;;58.07;35.37;;;;;;;;;;5026581;28;20189;-69
2022/03/16 03:24:44;;;;;;;55.70;37.20;;;;;;;;;;5026460;28;20739;-68
2022/03/16 03:27:09;;;;;;;58.30;34.03;;;;;;;;;;5021573;28;20248;-68
2022/03/16 03:29:34;;;;;;;51.27;32.97;;;;;;;;;;5028588;28;20660;-68
2022/03/16 03:31:59;;;;;;;49.77;33.27;;;;;;;;;;5025533;28;20182;-68
2022/03/16 03:34:24;;;;;;;50.87;33.57;;;;;;;;;;5023484;28;20236;-67
2022/03/16 03:36:50;;;;;;;53.97;33.47;;;;;;;;;;5025768;28;20647;-69
2022/03/16 03:39:15;;;;;;;46.63;29.70;;;;;;;;;;5029130;28;20260;-69
2022/03/16 03:41:40;;;;;;;46.87;32.50;;;;;;;;;;5022792;28;20555;-68
2022/03/16 03:44:05;;;;;;;50.07;31.83;;;;;;;;;;5025258;28;20175;-68
2022/03/16 03:46:30;;;;;;;44.53;31.40;;;;;;;;;;5026734;28;20174;-69
2022/03/16 03:48:56;;;;;;;52.60;31.90;;;;;;;;;;5019189;28;20207;-68
2022/03/16 03:51:21;;;;;;;53.10;32.97;;;;;;;;;;5031022;28;20217;-67
2022/03/16 03:53:46;;;;;;;53.43;33.60;;;;;;;;;;5029724;28;20178;-69
2022/03/16 03:56:11;;;;;;;54.77;33.43;;;;;;;;;;5028362;28;20197;-68
2022/03/16 03:58:38;;;;;;;50.43;34.00;;;;;;;;;;5030274;28;20261;-69
2022/03/16 04:01:05;;;;;;;50.40;34.13;;;;;;;;;;5032177;28;20659;-68
2022/03/16 04:03:30;;;;;;;49.97;33.10;;;;;;;;;;5031337;28;20179;-67
2022/03/16 04:05:56;;;;;;;52.70;33.00;;;;;;;;;;5027809;28;20497;-68
2022/03/16 04:08:21;;;;;;;51.57;32.87;;;;;;;;;;5029661;28;20210;-69
2022/03/16 04:10:46;;;;;;;49.20;32.17;;;;;;;;;;5029300;28;20252;-69
2022/03/16 04:13:11;;;;;;;44.90;31.47;;;;;;;;;;5030442;28;20171;-67
2022/03/16 04:15:36;;;;;;;47.20;31.43;;;;;;;;;;5031476;28;20170;-69
2022/03/16 04:18:02;;;;;;;46.20;30.93;;;;;;;;;;5024313;28;20692;-70
2022/03/16 04:20:27;;;;;;;49.93;32.30;;;;;;;;;;5023980;28;20228;-67
2022/03/16 04:22:52;;;;;;;45.50;32.23;;;;;;;;;;5032573;28;20174;-67
2022/03/16 04:25:17;;;;;;;47.23;29.77;;;;;;;;;;5031765;28;20178;-67
2022/03/16 04:27:42;;;;;;;45.73;29.93;;;;;;;;;;5031950;28;20237;-67
2022/03/16 04:30:08;;;;;;;43.77;30.57;;;;;;;;;;5013392;28;20205;-66
2022/03/16 04:32:33;;;;;;;46.60;31.53;;;;;;;;;;5032870;28;20213;-67
2022/03/16 04:34:58;;;;;;;49.53;30.37;;;;;;;;;;5033628;28;20289;-67
2022/03/16 04:37:23;;;;;;;46.17;30.70;;;;;;;;;;5032162;28;20194;-68
2022/03/16 04:39:49;;;;;;;45.57;31.30;;;;;;;;;;5031521;28;20182;-68
2022/03/16 04:42:14;;;;;;;41.37;29.93;;;;;;;;;;5014775;28;20671;-68
2022/03/16 04:44:39;;;;;;;45.07;30.17;;;;;;;;;;5030537;28;20189;-67
2022/03/16 04:47:04;;;;;;;44.07;29.80;;;;;;;;;;5031254;28;20190;-68
2022/03/16 04:49:30;;;;;;;45.83;28.53;;;;;;;;;;5031894;28;20256;-68
2022/03/16 04:51:55;;;;;;;45.13;31.03;;;;;;;;;;5030757;28;20174;-67
2022/03/16 04:54:20;;;;;;;44.00;29.63;;;;;;;;;;5031130;28;20182;-68
2022/03/16 04:56:46;;;;;;;40.60;27.93;;;;;;;;;;5032207;28;20182;-68
2022/03/16 04:59:11;;;;;;;47.47;29.40;;;;;;;;;;5031248;28;20276;-68
2022/03/16 05:01:36;;;;;;;45.00;29.60;;;;;;;;;;5031202;28;20179;-68
2022/03/16 05:04:02;;;;;;;41.80;28.23;;;;;;;;;;5030363;28;20193;-68
2022/03/16 05:06:27;;;;;;;39.50;28.03;;;;;;;;;;5027891;28;20179;-68
2022/03/16 05:08:52;;;;;;;41.23;27.77;;;;;;;;;;5031247;28;20200;-68
2022/03/16 05:11:20;;;;;;;42.17;28.03;;;;;;;;;;5031897;28;20206;-68
2022/03/16 05:13:46;;;;;;;39.73;27.70;;;;;;;;;;5013109;28;20228;-68
2022/03/16 05:16:11;;;;;;;40.53;27.77;;;;;;;;;;5028234;28;20175;-68
2022/03/16 05:18:38;;;;;;;39.40;26.97;;;;;;;;;;5024061;28;20200;-67
2022/03/16 05:21:03;;;;;;;38.80;27.57;;;;;;;;;;5023295;28;20574;-68
2022/03/16 05:23:29;;;;;;;37.77;26.07;;;;;;;;;;5025873;28;20214;-68
2022/03/16 05:25:54;;;;;;;39.37;26.70;;;;;;;;;;5030033;28;20640;-68
2022/03/16 05:28:20;;;;;;;40.37;27.67;;;;;;;;;;5012843;28;20210;-68
2022/03/16 05:30:45;;;;;;;39.63;27.10;;;;;;;;;;5028011;28;20206;-68
2022/03/16 05:33:10;;;;;;;37.10;27.27;;;;;;;;;;5026556;28;20515;-67
2022/03/16 05:35:35;;;;;;;38.17;27.40;;;;;;;;;;5022388;28;20233;-68
2022/03/16 05:38:02;;;;;;;40.37;28.53;;;;;;;;;;5024746;28;20195;-68
2022/03/16 05:40:27;;;;;;;40.57;27.70;;;;;;;;;;5008597;28;20273;-68
2022/03/16 05:42:52;;;;;;;38.77;27.80;;;;;;;;;;5010730;28;20674;-67
2022/03/16 05:45:18;;;;;;;42.17;28.13;;;;;;;;;;5026011;28;20206;-67
2022/03/16 05:47:43;;;;;;;39.13;26.73;;;;;;;;;;5030262;28;20198;-68
2022/03/16 05:50:08;;;;;;;40.13;28.00;;;;;;;;;;5024250;28;20214;-68
2022/03/16 05:52:33;;;;;;;41.80;28.27;;;;;;;;;;5030439;28;20179;-68
2022/03/16 05:54:59;;;;;;;39.20;26.30;;;;;;;;;;5033380;28;20178;-68
2022/03/16 05:57:25;;;;;;;38.80;27.37;;;;;;;;;;5012262;28;20691;-67
2022/03/16 05:59:50;;;;;;;40.40;29.03;;;;;;;;;;5029425;28;20185;-68
2022/03/16 06:02:16;;;;;;;41.30;27.30;;;;;;;;;;5017666;28;20186;-68
2022/03/16 06:04:43;;;;;;;37.60;27.33;;;;;;;;;;5022956;28;20178;-69
2022/03/16 06:07:08;;;;;;;42.17;26.80;;;;;;;;;;5024840;28;20193;-68
2022/03/16 06:09:34;;;;;;;40.37;26.93;;;;;;;;;;5027310;28;20206;-69
2022/03/16 06:12:00;;;;;;;37.90;26.77;;;;;;;;;;5021282;28;20274;-68
2022/03/16 06:14:25;;;;;;;39.70;26.13;;;;;;;;;;5022913;28;20182;-68
2022/03/16 06:16:52;;;;;;;37.53;26.97;;;;;;;;;;5020532;28;20233;-69
2022/03/16 06:19:17;;;;;;;36.80;25.17;;;;;;;;;;5005382;28;20201;-68
2022/03/16 06:21:42;;;;;;;36.17;24.70;;;;;;;;;;5016992;28;20178;-68
2022/03/16 06:24:07;;;;;;;35.43;24.07;;;;;;;;;;5027045;28;20560;-68
2022/03/16 06:26:33;;;;;;;31.93;23.97;;;;;;;;;;5026292;28;20221;-69
2022/03/16 06:28:58;;;;;;;31.90;22.20;;;;;;;;;;5023054;28;20288;-68
2022/03/16 06:31:23;;;;;;;34.37;22.17;;;;;;;;;;5027738;28;20206;-68
2022/03/16 06:33:48;;;;;;;33.37;22.03;;;;;;;;;;5021887;28;20178;-68
2022/03/16 06:36:14;;;;;;;31.40;21.73;;;;;;;;;;5026646;28;20183;-68
2022/03/16 06:38:39;;;;;;;27.80;20.37;;;;;;;;;;5019667;28;20206;-69
2022/03/16 06:41:05;;;;;;;31.87;20.83;;;;;;;;;;5025326;28;20213;-68
2022/03/16 06:43:30;;;;;;;26.90;18.57;;;;;;;;;;5027538;28;20277;-68
2022/03/16 06:45:55;;;;;;;26.80;17.10;;;;;;;;;;5023810;28;20695;-68
2022/03/16 06:48:23;;;;;;;24.43;17.23;;;;;;;;;;5029548;28;20223;-68
2022/03/16 06:50:48;;;;;;;24.80;16.97;;;;;;;;;;5024388;28;20217;-68
2022/03/16 06:53:14;;;;;;;23.00;15.43;;;;;;;;;;5026153;28;20675;-67
2022/03/16 06:55:39;;;;;;;20.07;14.13;;;;;;;;;;5023454;28;20676;-67
2022/03/16 06:58:04;;;;;;;21.47;15.53;;;;;;;;;;5013224;28;20206;-67
2022/03/16 07:00:29;;;;;;;20.13;14.10;;;;;;;;;;5024216;28;20543;-71
2022/03/16 07:03:02;;;;;;;24.43;15.93;;;;;;;;;;5024075;28;20214;-69
2022/03/16 07:05:29;;;;;;;18.80;14.43;;;;;;;;;;5026658;28;20193;-68
2022/03/16 07:07:58;;;;;;;17.93;13.80;;;;;;;;;;5022831;28;20194;-67
2022/03/16 07:10:23;;;;;;;17.17;12.23;;;;;;;;;;5029542;28;20703;-67
2022/03/16 07:12:49;;;;;;;16.43;13.03;;;;;;;;;;5029253;28;20183;-67
2022/03/16 07:15:14;;;;;;;17.80;12.73;;;;;;;;;;5026681;28;20691;-67
2022/03/16 07:17:39;;;;;;;16.13;11.90;;;;;;;;;;5023018;28;20624;-68
2022/03/16 07:20:06;;;;;;;18.80;12.70;;;;;;;;;;5024605;28;20655;-69
2022/03/16 07:22:31;;;;;;;15.97;12.13;;;;;;;;;;5028208;28;20213;-70
2022/03/16 07:24:57;;;;;;;19.73;12.87;;;;;;;;;;5030431;28;20214;-68
2022/03/16 07:27:23;;;;;;;15.87;11.10;;;;;;;;;;5033781;28;20285;-67
2022/03/16 07:29:48;;;;;;;18.83;11.93;;;;;;;;;;5034495;28;20309;-67
2022/03/16 07:32:13;;;;;;;18.60;11.53;;;;;;;;;;5037262;28;20194;-67
2022/03/16 07:34:38;;;;;;;16.27;11.67;;;;;;;;;;5024667;28;20265;-67
2022/03/16 07:37:03;;;;;;;16.50;12.07;;;;;;;;;;5024466;28;20186;-67
2022/03/16 07:39:29;;;;;;;16.60;11.80;;;;;;;;;;5030065;28;20186;-67
2022/03/16 07:41:54;;;;;;;15.43;11.23;;;;;;;;;;5028113;28;20218;-69
2022/03/16 07:44:19;;;;;;;19.93;10.83;;;;;;;;;;5031072;28;20182;-67
2022/03/16 07:46:44;;;;;;;13.90;10.70;;;;;;;;;;5031183;28;20261;-70
2022/03/16 07:49:09;;;;;;;15.20;11.30;;;;;;;;;;5034961;28;20551;-70
2022/03/16 07:51:34;;;;;;;14.57;10.87;;;;;;;;;;5033931;28;20713;-69
2022/03/16 07:54:00;;;;;;;13.53;10.50;;;;;;;;;;5034129;28;20185;-66
2022/03/16 07:56:25;;;;;;;14.23;9.80;;;;;;;;;;5033092;28;20188;-69
2022/03/16 07:58:51;;;;;;;13.40;10.53;;;;;;;;;;5038704;28;20664;-69
2022/03/16 08:01:16;;;;;;;12.67;10.07;;;;;;;;;;5029116;28;20271;-69
2022/03/16 08:03:41;;;;;;;13.17;10.47;;;;;;;;;;5031891;28;20248;-69
2022/03/16 08:06:06;;;;;;;14.30;9.87;;;;;;;;;;5031065;28;20185;-67
2022/03/16 08:08:31;;;;;;;13.77;10.73;;;;;;;;;;5022568;28;20229;-69
2022/03/16 08:10:58;;;;;;;14.33;9.77;;;;;;;;;;5032351;28;20202;-68
2022/03/16 08:13:23;;;;;;;15.03;10.73;;;;;;;;;;5033610;28;20185;-68
2022/03/16 08:15:49;;;;;;;13.20;10.03;;;;;;;;;;5034057;28;20273;-69
2022/03/16 08:18:14;;;;;;;13.23;9.77;;;;;;;;;;5013621;28;20269;-69
2022/03/16 08:20:39;;;;;;;13.40;10.53;;;;;;;;;;5023776;28;20265;-69
2022/03/16 08:23:04;;;;;;;13.40;9.70;;;;;;;;;;5021395;28;20178;-68
2022/03/16 08:25:30;;;;;;;12.83;9.57;;;;;;;;;;5021230;28;20261;-68
2022/03/16 08:27:55;;;;;;;11.07;9.77;;;;;;;;;;5039248;22;20261;-67
2022/03/16 08:30:20;;;;;;;11.73;9.33;;;;;;;;;;5032114;28;20729;-65
2022/03/16 08:32:45;;;;;;;12.77;10.57;;;;;;;;;;5029678;28;20202;-66
2022/03/16 08:35:11;;;;;;;11.70;9.20;;;;;;;;;;5031787;28;20197;-66
2022/03/16 08:37:37;;;;;;;12.60;9.47;;;;;;;;;;5031047;28;20266;-66
2022/03/16 08:40:03;;;;;;;11.00;9.00;;;;;;;;;;5024166;28;20594;-66
2022/03/16 08:42:28;;;;;;;11.53;8.93;;;;;;;;;;5028546;28;20638;-66
2022/03/16 08:44:54;;;;;;;10.93;8.63;;;;;;;;;;5011852;28;20273;-66
2022/03/16 08:47:20;;;;;;;10.60;8.47;;;;;;;;;;5030958;28;20225;-66
2022/03/16 08:49:46;;;;;;;11.90;8.27;;;;;;;;;;5028721;28;20344;-66
2022/03/16 08:52:12;;;;;;;12.53;8.53;;;;;;;;;;5030382;28;20210;-65
2022/03/16 08:54:38;;;;;;;10.97;8.43;;;;;;;;;;5010689;28;20756;-66
2022/03/16 08:57:04;;;;;;;11.37;9.10;;;;;;;;;;5031523;28;20181;-66
2022/03/16 08:59:29;;;;;;;13.27;8.20;;;;;;;;;;5031722;28;20290;-66
2022/03/16 09:01:54;;;;;;;9.43;7.60;;;;;;;;;;5029495;28;20609;-66
2022/03/16 09:04:21;;;;;;;10.93;8.90;;;;;;;;;;5031939;28;20182;-66
2022/03/16 09:06:48;;;;;;;11.03;7.90;;;;;;;;;;5032517;28;20177;-66
2022/03/16 09:09:13;;;;;;;12.00;7.90;;;;;;;;;;5033927;28;20690;-66
2022/03/16 09:11:39;;;;;;;10.43;7.73;;;;;;;;;;5029376;28;20195;-66
2022/03/16 09:14:05;;;;;;;11.38;8.27;;;;;;;;;;5028924;28;20193;-66
2022/03/16 09:16:30;;;;;;;10.23;7.67;;;;;;;;;;5025432;28;20608;-67
2022/03/16 09:18:55;;;;;;;10.43;7.70;;;;;;;;;;5024026;28;20209;-65
2022/03/16 09:21:21;;;;;;;10.70;7.88;;;;;;;;;;5011251;28;20197;-66
2022/03/16 09:23:47;;;;;;;12.68;7.95;;;;;;;;;;5026861;28;21068;-66
2022/03/16 09:26:12;;;;;;;12.20;7.93;;;;;;;;;;5027593;28;20995;-66
2022/03/16 09:28:37;;;;;;;13.40;8.82;;;;;;;;;;5029402;28;20214;-67
2022/03/16 09:31:02;;;;;;;11.27;8.27;;;;;;;;;;5029606;28;20267;-66
2022/03/16 09:33:30;;;;;;;12.57;8.40;;;;;;;;;;5029107;28;20210;-66
2022/03/16 09:35:55;;;;;;;10.77;7.43;;;;;;;;;;5008553;28;20189;-66
2022/03/16 09:38:20;;;;;;;9.52;8.10;;;;;;;;;;5027592;28;20194;-66
2022/03/16 09:40:50;;;;;;;10.02;7.45;;;;;;;;;;5010535;28;20253;-65
2022/03/16 09:43:18;;;;;;;10.13;8.00;;;;;;;;;;5022839;28;20174;-65
2022/03/16 09:45:56;;;;;;;10.43;7.68;;;;;;;;;;5008893;28;20186;-66
2022/03/16 09:48:23;;;;;;;9.68;8.00;;;;;;;;;;5026749;28;20299;-65
2022/03/16 09:50:50;;;;;;;12.13;8.30;;;;;;;;;;5027697;28;20206;-66
2022/03/16 09:53:16;;;;;;;12.93;8.90;;;;;;;;;;5028935;28;20261;-65
2022/03/16 09:55:41;;;;;;;14.40;8.90;;;;;;;;;;5027817;28;20800;-66
2022/03/16 09:58:06;;;;;;;14.63;9.45;;;;;;;;;;5029257;28;20249;-64
2022/03/16 10:00:31;;;;;;;11.40;8.70;;;;;;;;;;5033192;28;20178;-66
2022/03/16 10:03:02;;;;;;;17.33;11.00;;;;;;;;;;5031644;28;20175;-66
2022/03/16 10:05:28;;;;;;;15.73;7.90;;;;;;;;;;5031223;28;20555;-66
2022/03/16 10:07:53;;;;;;;12.82;8.55;;;;;;;;;;5033823;28;20198;-67
2022/03/16 10:13:15;;;;;;;23.00;9.93;;;;;;;;;;5026074;28;20268;-67
2022/03/16 10:15:42;;;;;;;15.30;9.98;;;;;;;;;;5013992;28;20170;-66
2022/03/16 10:18:07;;;;;;;11.73;9.88;;;;;;;;;;5025454;28;20202;-66
2022/03/16 10:20:33;;;;;;;13.88;9.93;;;;;;;;;;5026105;28;20647;-66
2022/03/16 10:23:04;;;;;;;9.52;7.70;;;;;;;;;;5028024;28;20186;-66
2022/03/16 10:25:31;;;;;;;11.00;8.75;;;;;;;;;;5030962;28;20181;-67
2022/03/16 10:28:10;;;;;;;12.18;9.32;;;;;;;;;;5029433;28;20256;-68
2022/03/16 10:30:35;;;;;;;11.65;8.32;;;;;;;;;;5023952;28;20205;-66
2022/03/16 10:33:00;;;;;;;11.15;9.00;;;;;;;;;;5029866;28;20178;-66
2022/03/16 10:35:25;;;;;;;10.27;7.63;;;;;;;;;;5024326;28;20185;-66
2022/03/16 10:37:51;;;;;;;11.23;9.05;;;;;;;;;;5028356;28;20924;-67
2022/03/16 10:40:20;;;;;;;10.70;9.60;;;;;;;;;;5010948;28;20194;-67
2022/03/16 10:48:16;;;;;;;12.18;9.63;;;;;;;;;;5012637;28;20283;-67
2022/03/16 10:50:42;;;;;;;12.43;9.73;;;;;;;;;;5021825;28;20581;-67
2022/03/16 10:53:08;;;;;;;10.90;9.77;;;;;;;;;;5028410;28;20178;-66
2022/03/16 10:55:35;;;;;;;11.65;9.82;;;;;;;;;;5026454;28;20182;-67
2022/03/16 10:58:00;;;;;;;14.63;10.30;;;;;;;;;;5028496;28;20198;-65
2022/03/16 11:00:27;;;;;;;10.90;9.10;;;;;;;;;;5032122;28;20193;-66
2022/03/16 11:02:53;;;;;;;13.68;9.18;;;;;;;;;;5028414;28;20185;-67
2022/03/16 11:05:20;;;;;;;10.20;9.13;;;;;;;;;;5027093;28;20178;-67
2022/03/16 11:07:47;;;;;;;12.00;9.93;;;;;;;;;;5029433;28;20687;-66
2022/03/16 11:10:13;;;;;;;10.77;9.68;;;;;;;;;;5033573;28;20551;-67
2022/03/16 11:15:23;;;;;;;11.07;9.60;;;;;;;;;;5032918;28;20269;-66
2022/03/16 11:17:51;;;;;;;12.03;9.47;;;;;;;;;;5028820;28;20281;-66
2022/03/16 11:20:17;;;;;;;11.18;9.85;;;;;;;;;;5032211;28;20852;-67
2022/03/16 11:26:00;;;;;;;11.98;9.52;;;;;;;;;;5031215;28;20204;-66
2022/03/16 11:28:42;;;;;;;11.98;9.07;;;;;;;;;;5021628;28;20222;-67
2022/03/16 11:31:08;;;;;;;10.70;9.60;;;;;;;;;;5033458;28;20729;-67
2022/03/16 11:33:46;;;;;;;10.65;8.95;;;;;;;;;;5015424;28;20182;-67
2022/03/16 11:36:26;;;;;;;12.45;9.25;;;;;;;;;;5034248;28;20189;-66
2022/03/16 11:38:51;;;;;;;11.48;9.23;;;;;;;;;;5030810;28;20225;-66
2022/03/16 11:41:23;;;;;;;9.97;8.50;;;;;;;;;;5032179;28;20819;-67
2022/03/16 11:43:56;;;;;;;12.10;9.15;;;;;;;;;;5029928;28;20961;-67
2022/03/16 11:46:28;;;;;;;10.48;9.38;;;;;;;;;;5012274;28;20204;-67
2022/03/16 11:49:00;;;;;;;10.48;9.35;;;;;;;;;;5012424;28;20282;-67
2022/03/16 11:51:26;;;;;;;10.55;8.75;;;;;;;;;;5032026;28;20198;-65
2022/03/16 11:53:58;;;;;;;9.02;8.00;;;;;;;;;;5011331;28;20189;-67
2022/03/16 11:56:26;;;;;;;10.23;9.23;;;;;;;;;;5028782;28;20477;-67
2022/03/16 11:58:55;;;;;;;9.70;8.25;;;;;;;;;;5030911;28;20239;-67
2022/03/16 12:01:21;;;;;;;9.13;8.13;;;;;;;;;;5032182;28;20209;-67
2022/03/16 12:03:46;;;;;;;9.23;8.25;;;;;;;;;;5031189;28;20194;-66
2022/03/16 12:06:12;;;;;;;9.82;8.68;;;;;;;;;;5029903;28;20185;-66
2022/03/16 12:09:06;;;;;;;11.68;8.95;;;;;;;;;;5031494;28;20637;-66
2022/03/16 12:14:37;;;;;;;10.95;9.57;;;;;;;;;;5027177;28;20344;-65
2022/03/16 12:17:29;;;;;;;10.73;9.10;;;;;;;;;;5028535;28;20182;-67
2022/03/16 12:20:11;;;;;;;10.43;8.68;;;;;;;;;;5026488;28;20245;-66
2022/03/16 12:22:37;;;;;;;12.13;9.60;;;;;;;;;;5024828;28;20551;-65
2022/03/16 12:25:21;;;;;;;12.30;10.13;;;;;;;;;;5031132;28;20709;-66
2022/03/16 12:30:36;;;;;;;12.93;10.00;;;;;;;;;;5033720;28;20252;-66
2022/03/16 12:33:02;;;;;;;11.43;9.82;;;;;;;;;;5024834;28;21358;-66
2022/03/16 12:35:32;;;;;;;10.48;8.73;;;;;;;;;;5030116;28;20206;-67
2022/03/16 12:37:57;;;;;;;10.90;9.80;;;;;;;;;;5028971;28;20584;-66
2022/03/16 12:40:24;;;;;;;12.07;10.35;;;;;;;;;;5032085;28;20183;-67
2022/03/16 12:42:56;;;;;;;11.68;9.55;;;;;;;;;;5029929;28;20190;-67
2022/03/16 12:45:22;;;;;;;10.43;9.32;;;;;;;;;;5031941;28;20677;-67
2022/03/16 12:47:55;;;;;;;14.68;11.05;;;;;;;;;;5027213;28;20201;-66
2022/03/16 12:50:25;;;;;;;13.60;11.15;;;;;;;;;;5027423;28;20194;-66
2022/03/16 12:52:50;;;;;;;12.80;10.40;;;;;;;;;;5025581;28;20189;-65
2022/03/16 12:55:17;;;;;;;11.75;10.32;;;;;;;;;;5013638;28;20173;-66
2022/03/16 12:57:54;;;;;;;12.05;10.57;;;;;;;;;;5028369;28;20285;-66
2022/03/16 13:00:19;;;;;;;16.73;11.00;;;;;;;;;;5028082;28;20182;-66
2022/03/16 13:02:45;;;;;;;13.33;10.80;;;;;;;;;;5029459;28;20555;-67
2022/03/16 13:05:11;;;;;;;13.80;10.57;;;;;;;;;;5028489;28;20435;-67
2022/03/16 13:07:36;;;;;;;14.48;10.95;;;;;;;;;;5030828;28;20178;-66
2022/03/16 13:10:04;;;;;;;13.40;10.75;;;;;;;;;;5028761;28;20204;-66
2022/03/16 13:12:29;;;;;;;13.10;11.32;;;;;;;;;;5026242;28;20202;-67
2022/03/16 13:14:57;;;;;;;13.50;11.70;;;;;;;;;;5024321;28;20221;-68
2022/03/16 13:17:24;;;;;;;11.77;10.02;;;;;;;;;;5027607;28;20492;-66
2022/03/16 13:19:53;;;;;;;16.25;10.48;;;;;;;;;;5033770;28;20273;-66
2022/03/16 13:22:19;;;;;;;13.35;10.68;;;;;;;;;;5028736;28;20269;-66
2022/03/16 13:24:48;;;;;;;19.60;11.00;;;;;;;;;;5029277;28;20238;-66
2022/03/16 13:27:24;;;;;;;15.05;12.02;;;;;;;;;;5031073;28;20182;-66
2022/03/16 13:29:51;;;;;;;13.57;11.02;;;;;;;;;;5029335;28;20705;-66
2022/03/16 13:32:25;;;;;;;14.77;11.77;;;;;;;;;;5030464;28;20178;-66
2022/03/16 13:34:51;;;;;;;14.98;11.38;;;;;;;;;;5018763;28;20238;-66
2022/03/16 13:37:26;;;;;;;13.73;11.52;;;;;;;;;;5024479;28;20237;-67
2022/03/16 13:40:11;;;;;;;13.77;10.85;;;;;;;;;;5008733;28;20255;-67
2022/03/16 13:42:37;;;;;;;14.10;11.90;;;;;;;;;;5032169;28;20178;-67
2022/03/16 13:45:11;;;;;;;13.07;11.35;;;;;;;;;;5029321;28;20186;-66
2022/03/16 13:47:36;;;;;;;13.15;10.23;;;;;;;;;;5024983;28;20182;-66
2022/03/16 13:50:02;;;;;;;13.52;11.15;;;;;;;;;;5030315;28;20209;-66
2022/03/16 13:52:34;;;;;;;12.93;11.60;;;;;;;;;;5032417;28;20193;-66
2022/03/16 13:55:07;;;;;;;13.40;11.82;;;;;;;;;;5023130;28;20660;-67
2022/03/16 13:57:36;;;;;;;14.27;11.60;;;;;;;;;;5028247;28;20249;-67
2022/03/16 14:00:06;;;;;;;12.93;11.52;;;;;;;;;;5032160;28;20530;-66
2022/03/16 14:02:31;;;;;;;12.48;11.18;;;;;;;;;;5029565;28;20178;-66
2022/03/16 14:04:57;;;;;;;14.85;10.82;;;;;;;;;;5027524;28;20320;-67
2022/03/16 14:07:26;;;;;;;13.75;11.52;;;;;;;;;;5026210;28;20178;-67
2022/03/16 14:09:53;;;;;;;12.95;10.98;;;;;;;;;;5023775;28;20251;-66
2022/03/16 14:12:20;;;;;;;16.65;10.93;;;;;;;;;;5021973;28;20324;-66
2022/03/16 14:14:49;;;;;;;12.40;10.82;;;;;;;;;;5017730;28;20720;-67
2022/03/16 14:17:14;;;;;;;13.45;10.80;;;;;;;;;;5029921;28;20221;-67
2022/03/16 14:19:43;;;;;;;12.35;10.60;;;;;;;;;;5029161;28;20695;-67
2022/03/16 14:22:08;;;;;;;12.23;10.50;;;;;;;;;;5027307;28;20166;-65
2022/03/16 14:24:34;;;;;;;16.23;10.85;;;;;;;;;;5025040;28;20232;-66
2022/03/16 14:27:26;;;;;;;13.05;10.95;;;;;;;;;;5009850;28;20544;-67
2022/03/16 14:29:46;;;;;;;13.18;10.52;;;;;;;;;;5025036;22;20262;-69
2022/03/16 14:32:11;;;;;;;12.70;11.00;;;;;;;;;;5009687;28;20675;-69
2022/03/16 14:34:37;;;;;;;12.65;10.13;;;;;;;;;;5005660;28;20788;-69
2022/03/16 14:37:02;;;;;;;12.43;10.82;;;;;;;;;;5005671;28;20214;-70